Time;durP1;ratioP1;P1;durP2;ratioP2;P2;SDS_P1;SDS_P2;PMS_P1;PMS_P2;Temp;Humidity;BMP_temperature;BMP_pressure;BME280_temperature;BME280_humidity;BME280_pressure;Samples;Min_cycle;Max_cycle;Signal;HPM_P1;HPM_P2
2023/08/31 00:00:51;;;;;;;0.30;0.30;;;;;;;;;;5072187;28;20028;-80
2023/08/31 00:03:18;;;;;;;0.30;0.30;;;;;;;;;;5082384;28;20016;-80
2023/08/31 00:05:44;;;;;;;0.30;0.30;;;;;;;;;;5084387;28;20036;-79
2023/08/31 00:08:13;;;;;;;0.30;0.30;;;;;;;;;;5075991;28;20165;-80
2023/08/31 00:10:40;;;;;;;0.20;0.20;;;;;;;;;;5075888;28;20112;-80
2023/08/31 00:13:07;;;;;;;0.32;0.32;;;;;;;;;;5075887;28;20085;-81
2023/08/31 00:15:35;;;;;;;0.30;0.30;;;;;;;;;;5076509;28;20396;-81
2023/08/31 00:18:03;;;;;;;0.22;0.22;;;;;;;;;;5075452;28;20023;-81
2023/08/31 00:20:30;;;;;;;0.20;0.20;;;;;;;;;;5075729;28;20472;-81
2023/08/31 00:22:56;;;;;;;0.30;0.30;;;;;;;;;;5075886;28;20031;-80
2023/08/31 00:25:22;;;;;;;0.30;0.30;;;;;;;;;;5075418;28;20031;-80
2023/08/31 00:27:48;;;;;;;0.30;0.30;;;;;;;;;;5077196;28;20021;-81
2023/08/31 00:30:15;;;;;;;0.30;0.30;;;;;;;;;;5076897;28;20024;-81
2023/08/31 00:32:42;;;;;;;0.30;0.30;;;;;;;;;;5075221;28;20376;-80
2023/08/31 00:35:09;;;;;;;0.30;0.30;;;;;;;;;;5077139;28;20376;-80
2023/08/31 00:37:35;;;;;;;0.20;0.20;;;;;;;;;;5075489;28;20016;-80
2023/08/31 00:40:01;;;;;;;0.30;0.30;;;;;;;;;;5074822;28;20474;-79
2023/08/31 00:42:29;;;;;;;0.30;0.30;;;;;;;;;;5075309;28;20112;-80
2023/08/31 00:44:55;;;;;;;0.28;0.28;;;;;;;;;;5074861;28;20024;-80
2023/08/31 00:47:22;;;;;;;0.30;0.30;;;;;;;;;;5076317;28;20035;-80
2023/08/31 00:49:49;;;;;;;0.20;0.20;;;;;;;;;;5075176;28;20025;-79
2023/08/31 00:52:15;;;;;;;0.30;0.30;;;;;;;;;;5074450;28;20025;-79
2023/08/31 00:54:44;;;;;;;0.30;0.30;;;;;;;;;;5076470;28;20055;-79
2023/08/31 00:57:11;;;;;;;0.20;0.20;;;;;;;;;;5076491;28;20033;-80
2023/08/31 00:59:37;;;;;;;0.30;0.30;;;;;;;;;;5075012;28;20467;-80
2023/08/31 01:02:06;;;;;;;0.32;0.32;;;;;;;;;;5074957;28;20036;-79
2023/08/31 01:04:42;;;;;;;0.30;0.30;;;;;;;;;;5076065;28;20093;-80
2023/08/31 01:07:16;;;;;;;0.30;0.30;;;;;;;;;;5074765;28;20106;-80
2023/08/31 01:10:06;;;;;;;0.20;0.20;;;;;;;;;;5074838;28;20032;-79
2023/08/31 01:12:44;;;;;;;0.30;0.30;;;;;;;;;;5071793;28;20056;-79
2023/08/31 01:15:15;;;;;;;0.30;0.30;;;;;;;;;;5074121;28;20048;-80
2023/08/31 01:17:46;;;;;;;0.30;0.30;;;;;;;;;;5076237;28;20024;-81
2023/08/31 01:20:14;;;;;;;0.30;0.30;;;;;;;;;;5074510;28;20139;-79
2023/08/31 01:22:49;;;;;;;0.30;0.30;;;;;;;;;;5076308;28;20103;-80
2023/08/31 01:25:15;;;;;;;0.30;0.30;;;;;;;;;;5074599;28;20464;-81
2023/08/31 01:27:41;;;;;;;0.30;0.30;;;;;;;;;;5075121;28;20013;-81
2023/08/31 01:30:08;;;;;;;0.30;0.30;;;;;;;;;;5074810;28;20368;-79
2023/08/31 01:32:34;;;;;;;0.30;0.30;;;;;;;;;;5075733;28;20017;-80
2023/08/31 01:35:01;;;;;;;0.20;0.20;;;;;;;;;;5075448;28;20070;-81
2023/08/31 01:37:38;;;;;;;0.30;0.30;;;;;;;;;;5074193;28;20020;-81
2023/08/31 01:40:10;;;;;;;0.52;0.52;;;;;;;;;;5074310;28;20075;-82
2023/08/31 01:42:37;;;;;;;0.30;0.30;;;;;;;;;;5075360;28;20025;-80
2023/08/31 01:45:04;;;;;;;0.30;0.30;;;;;;;;;;5073966;28;20033;-80
2023/08/31 01:47:30;;;;;;;0.32;0.32;;;;;;;;;;5075372;28;20528;-81
2023/08/31 01:49:56;;;;;;;0.30;0.30;;;;;;;;;;5073774;28;20027;-79
2023/08/31 01:52:22;;;;;;;0.30;0.30;;;;;;;;;;5075506;28;20036;-80
2023/08/31 01:54:48;;;;;;;0.30;0.30;;;;;;;;;;5073914;28;20490;-81
2023/08/31 01:57:14;;;;;;;0.30;0.30;;;;;;;;;;5073611;28;20031;-80
2023/08/31 01:59:41;;;;;;;0.30;0.30;;;;;;;;;;5074546;28;20032;-81
2023/08/31 02:02:07;;;;;;;0.38;0.38;;;;;;;;;;5073568;28;20020;-81
2023/08/31 02:04:33;;;;;;;0.30;0.30;;;;;;;;;;5075354;28;20376;-81
2023/08/31 02:06:59;;;;;;;0.30;0.30;;;;;;;;;;5073809;28;20111;-82
2023/08/31 02:09:25;;;;;;;0.30;0.30;;;;;;;;;;5073751;28;20024;-80
2023/08/31 02:11:51;;;;;;;0.30;0.30;;;;;;;;;;5074937;28;20073;-80
2023/08/31 02:14:17;;;;;;;0.30;0.30;;;;;;;;;;5073660;28;20024;-81
2023/08/31 02:16:44;;;;;;;0.30;0.30;;;;;;;;;;5072859;28;20052;-79
2023/08/31 02:19:10;;;;;;;0.30;0.30;;;;;;;;;;5073485;28;20678;-80
2023/08/31 02:21:36;;;;;;;0.30;0.30;;;;;;;;;;5073518;28;20031;-81
2023/08/31 02:24:03;;;;;;;0.30;0.30;;;;;;;;;;5073019;28;20028;-80
2023/08/31 02:26:29;;;;;;;0.30;0.30;;;;;;;;;;5073038;28;20031;-80
2023/08/31 02:28:55;;;;;;;0.30;0.30;;;;;;;;;;5074961;28;20024;-80
2023/08/31 02:31:21;;;;;;;0.30;0.30;;;;;;;;;;5072999;28;20029;-82
2023/08/31 02:33:48;;;;;;;0.40;0.40;;;;;;;;;;5073149;28;20020;-81
2023/08/31 02:36:14;;;;;;;0.30;0.30;;;;;;;;;;5073136;28;20028;-80
2023/08/31 02:38:40;;;;;;;0.30;0.30;;;;;;;;;;5073088;28;20043;-79
2023/08/31 02:41:06;;;;;;;0.30;0.30;;;;;;;;;;5073277;28;20543;-80
2023/08/31 02:43:32;;;;;;;0.30;0.30;;;;;;;;;;5074380;28;20105;-80
2023/08/31 02:46:02;;;;;;;0.30;0.30;;;;;;;;;;5073086;28;20115;-80
2023/08/31 02:48:29;;;;;;;0.38;0.38;;;;;;;;;;5076918;28;20043;-80
2023/08/31 02:50:56;;;;;;;0.30;0.30;;;;;;;;;;5075936;28;20469;-80
2023/08/31 02:53:22;;;;;;;0.30;0.30;;;;;;;;;;5081889;28;20446;-79
2023/08/31 02:55:50;;;;;;;0.30;0.30;;;;;;;;;;5089951;28;20024;-78
2023/08/31 02:58:16;;;;;;;0.30;0.30;;;;;;;;;;5090815;28;20046;-80
2023/08/31 03:00:45;;;;;;;0.30;0.30;;;;;;;;;;5075740;28;20025;-80
2023/08/31 03:03:11;;;;;;;0.30;0.30;;;;;;;;;;5076978;28;20468;-79
2023/08/31 03:05:37;;;;;;;0.30;0.30;;;;;;;;;;5075095;28;20032;-80
2023/08/31 03:08:04;;;;;;;0.40;0.40;;;;;;;;;;5075682;28;20028;-80
2023/08/31 03:10:30;;;;;;;0.30;0.30;;;;;;;;;;5076347;28;20029;-80
2023/08/31 03:12:56;;;;;;;0.32;0.32;;;;;;;;;;5077721;28;20031;-79
2023/08/31 03:15:23;;;;;;;0.40;0.40;;;;;;;;;;5073433;28;20048;-79
2023/08/31 03:17:49;;;;;;;0.30;0.30;;;;;;;;;;5073287;28;20024;-79
2023/08/31 03:20:15;;;;;;;0.30;0.30;;;;;;;;;;5074084;28;20464;-79
2023/08/31 03:22:41;;;;;;;0.40;0.40;;;;;;;;;;5073758;28;20036;-79
2023/08/31 03:25:07;;;;;;;0.30;0.30;;;;;;;;;;5073347;28;20024;-80
2023/08/31 03:27:33;;;;;;;0.30;0.30;;;;;;;;;;5075481;28;20027;-81
2023/08/31 03:30:00;;;;;;;0.50;0.50;;;;;;;;;;5073435;28;20021;-81
2023/08/31 03:32:26;;;;;;;0.20;0.20;;;;;;;;;;5074564;28;20048;-80
2023/08/31 03:34:52;;;;;;;0.30;0.30;;;;;;;;;;5074884;28;20025;-79
2023/08/31 03:37:19;;;;;;;0.30;0.30;;;;;;;;;;5076105;28;20020;-82
2023/08/31 03:39:47;;;;;;;0.30;0.30;;;;;;;;;;5081239;28;20029;-79
2023/08/31 03:42:13;;;;;;;0.30;0.30;;;;;;;;;;5079842;28;20024;-79
2023/08/31 03:44:40;;;;;;;0.30;0.30;;;;;;;;;;5079858;28;20028;-80
2023/08/31 03:47:06;;;;;;;0.30;0.30;;;;;;;;;;5078385;28;20487;-80
2023/08/31 03:49:33;;;;;;;0.30;0.30;;;;;;;;;;5082876;28;20021;-79
2023/08/31 03:51:59;;;;;;;0.30;0.30;;;;;;;;;;5080856;28;20017;-80
2023/08/31 03:54:25;;;;;;;0.30;0.30;;;;;;;;;;5076405;28;20377;-80
2023/08/31 03:56:51;;;;;;;0.30;0.30;;;;;;;;;;5076148;28;20033;-79
2023/08/31 03:59:18;;;;;;;0.30;0.30;;;;;;;;;;5076742;28;20051;-81
2023/08/31 04:01:44;;;;;;;0.40;0.40;;;;;;;;;;5076693;28;20028;-80
2023/08/31 04:04:10;;;;;;;0.40;0.40;;;;;;;;;;5075874;28;20025;-81
2023/08/31 04:06:36;;;;;;;0.30;0.30;;;;;;;;;;5077658;28;20028;-81
2023/08/31 04:09:03;;;;;;;0.30;0.30;;;;;;;;;;5076385;28;20028;-80
2023/08/31 04:11:29;;;;;;;0.30;0.30;;;;;;;;;;5077258;28;20087;-79
2023/08/31 04:13:55;;;;;;;0.32;0.32;;;;;;;;;;5076241;28;20020;-80
2023/08/31 04:16:21;;;;;;;0.30;0.30;;;;;;;;;;5074814;28;20103;-81
2023/08/31 04:18:51;;;;;;;0.30;0.30;;;;;;;;;;5075528;28;20036;-80
2023/08/31 04:21:18;;;;;;;0.30;0.30;;;;;;;;;;5075572;28;20027;-79
2023/08/31 04:23:45;;;;;;;0.40;0.40;;;;;;;;;;5079334;28;20515;-79
2023/08/31 04:26:14;;;;;;;0.40;0.40;;;;;;;;;;5077332;28;20082;-79
2023/08/31 04:28:42;;;;;;;0.30;0.30;;;;;;;;;;5076164;28;20481;-79
2023/08/31 04:31:08;;;;;;;0.40;0.40;;;;;;;;;;5075960;28;20025;-79
2023/08/31 04:33:35;;;;;;;0.40;0.40;;;;;;;;;;5076415;28;20021;-81
2023/08/31 04:36:01;;;;;;;0.40;0.40;;;;;;;;;;5076029;28;20032;-80
2023/08/31 04:38:28;;;;;;;0.30;0.30;;;;;;;;;;5075899;28;20433;-80
2023/08/31 04:40:54;;;;;;;0.30;0.30;;;;;;;;;;5075325;28;20028;-80
2023/08/31 04:43:20;;;;;;;0.30;0.30;;;;;;;;;;5075942;28;20016;-81
2023/08/31 04:45:46;;;;;;;0.30;0.30;;;;;;;;;;5075771;28;20031;-79
2023/08/31 04:48:14;;;;;;;0.30;0.30;;;;;;;;;;5075031;28;20020;-80
2023/08/31 04:50:40;;;;;;;0.40;0.40;;;;;;;;;;5074922;28;20605;-80
2023/08/31 04:53:06;;;;;;;0.30;0.30;;;;;;;;;;5075053;28;20032;-79
2023/08/31 04:55:32;;;;;;;0.30;0.30;;;;;;;;;;5076319;28;20029;-79
2023/08/31 04:57:58;;;;;;;0.30;0.30;;;;;;;;;;5074388;28;20016;-79
2023/08/31 05:00:24;;;;;;;0.40;0.40;;;;;;;;;;5076093;28;20461;-79
2023/08/31 05:02:51;;;;;;;0.40;0.40;;;;;;;;;;5074814;28;20472;-79
2023/08/31 05:05:18;;;;;;;0.40;0.40;;;;;;;;;;5075916;28;20024;-79
2023/08/31 05:07:44;;;;;;;0.35;0.35;;;;;;;;;;5076357;28;20021;-79
2023/08/31 05:10:11;;;;;;;0.40;0.40;;;;;;;;;;5074994;28;20020;-81
2023/08/31 05:12:37;;;;;;;0.40;0.40;;;;;;;;;;5074637;28;20043;-80
2023/08/31 05:15:04;;;;;;;0.40;0.40;;;;;;;;;;5074556;28;20055;-81
2023/08/31 05:17:30;;;;;;;0.30;0.30;;;;;;;;;;5074685;28;20029;-81
2023/08/31 05:19:57;;;;;;;0.38;0.38;;;;;;;;;;5074724;28;20024;-81
2023/08/31 05:22:23;;;;;;;0.30;0.30;;;;;;;;;;5076354;28;20025;-79
2023/08/31 05:24:49;;;;;;;0.30;0.30;;;;;;;;;;5075327;28;20025;-80
2023/08/31 05:27:16;;;;;;;0.30;0.30;;;;;;;;;;5074838;28;20025;-79
2023/08/31 05:29:42;;;;;;;0.38;0.38;;;;;;;;;;5074352;28;20453;-81
2023/08/31 05:32:08;;;;;;;0.65;0.65;;;;;;;;;;5075027;28;20032;-79
2023/08/31 05:34:37;;;;;;;0.30;0.30;;;;;;;;;;5075660;28;20017;-81
2023/08/31 05:37:06;;;;;;;0.30;0.30;;;;;;;;;;5073950;28;20060;-78
2023/08/31 05:39:32;;;;;;;0.30;0.30;;;;;;;;;;5077549;28;20034;-80
2023/08/31 05:41:59;;;;;;;0.30;0.30;;;;;;;;;;5076139;28;20028;-79
2023/08/31 05:44:25;;;;;;;0.30;0.30;;;;;;;;;;5075631;28;20026;-80
2023/08/31 05:46:51;;;;;;;0.30;0.30;;;;;;;;;;5074857;28;20024;-81
2023/08/31 05:49:17;;;;;;;0.30;0.30;;;;;;;;;;5075627;28;20593;-80
2023/08/31 05:51:43;;;;;;;0.40;0.40;;;;;;;;;;5076576;28;20047;-78
2023/08/31 05:54:11;;;;;;;0.35;0.35;;;;;;;;;;5075017;28;20025;-80
2023/08/31 05:56:39;;;;;;;0.38;0.38;;;;;;;;;;5074156;28;20050;-79
2023/08/31 05:59:06;;;;;;;0.52;0.52;;;;;;;;;;5073955;28;20529;-79
2023/08/31 06:01:32;;;;;;;0.40;0.40;;;;;;;;;;5074077;28;20032;-80
2023/08/31 06:03:58;;;;;;;0.38;0.38;;;;;;;;;;5073711;28;20050;-79
2023/08/31 06:06:24;;;;;;;0.30;0.30;;;;;;;;;;5078285;28;20416;-80
2023/08/31 06:08:50;;;;;;;0.30;0.30;;;;;;;;;;5075522;28;20103;-81
2023/08/31 06:11:16;;;;;;;0.30;0.30;;;;;;;;;;5074016;28;20025;-79
2023/08/31 06:13:43;;;;;;;0.32;0.32;;;;;;;;;;5077051;28;20021;-79
2023/08/31 06:16:09;;;;;;;0.40;0.40;;;;;;;;;;5075061;28;20135;-79
2023/08/31 06:18:35;;;;;;;0.30;0.30;;;;;;;;;;5076147;28;20025;-81
2023/08/31 06:21:01;;;;;;;0.30;0.30;;;;;;;;;;5075149;28;20028;-80
2023/08/31 06:23:27;;;;;;;0.32;0.32;;;;;;;;;;5077893;28;20024;-79
2023/08/31 06:25:53;;;;;;;0.40;0.40;;;;;;;;;;5077585;28;20123;-79
2023/08/31 06:28:19;;;;;;;0.30;0.30;;;;;;;;;;5074588;28;20059;-79
2023/08/31 06:30:46;;;;;;;0.40;0.40;;;;;;;;;;5075196;28;20040;-80
2023/08/31 06:33:13;;;;;;;0.30;0.30;;;;;;;;;;5072849;28;20016;-79
2023/08/31 06:35:39;;;;;;;0.30;0.30;;;;;;;;;;5073445;28;20025;-80
2023/08/31 06:38:05;;;;;;;0.30;0.30;;;;;;;;;;5075350;28;20008;-81
2023/08/31 06:40:31;;;;;;;0.30;0.30;;;;;;;;;;5075468;28;20025;-81
2023/08/31 06:42:57;;;;;;;0.30;0.30;;;;;;;;;;5078830;28;20025;-79
2023/08/31 06:45:24;;;;;;;0.30;0.30;;;;;;;;;;5080643;28;20377;-79
2023/08/31 06:47:50;;;;;;;0.30;0.30;;;;;;;;;;5076983;28;20044;-81
2023/08/31 06:50:16;;;;;;;0.30;0.30;;;;;;;;;;5074334;28;20021;-80
2023/08/31 06:52:43;;;;;;;0.30;0.30;;;;;;;;;;5074341;28;20338;-80
2023/08/31 06:55:10;;;;;;;0.40;0.40;;;;;;;;;;5073102;28;20017;-80
2023/08/31 06:57:37;;;;;;;0.30;0.30;;;;;;;;;;5072670;28;20074;-79
2023/08/31 07:00:03;;;;;;;0.35;0.35;;;;;;;;;;5073119;28;20071;-80
2023/08/31 07:02:30;;;;;;;0.30;0.30;;;;;;;;;;5072979;28;20024;-79
2023/08/31 07:04:56;;;;;;;0.25;0.25;;;;;;;;;;5072573;28;20024;-81
2023/08/31 07:07:22;;;;;;;0.30;0.30;;;;;;;;;;5074464;28;20028;-79
2023/08/31 07:09:48;;;;;;;0.28;0.28;;;;;;;;;;5072910;28;20017;-79
2023/08/31 07:12:15;;;;;;;0.20;0.20;;;;;;;;;;5073048;28;20065;-81
2023/08/31 07:14:41;;;;;;;0.30;0.30;;;;;;;;;;5072424;28;20380;-81
2023/08/31 07:17:07;;;;;;;0.30;0.30;;;;;;;;;;5072517;28;20032;-80
2023/08/31 07:19:36;;;;;;;0.20;0.20;;;;;;;;;;5073034;28;20021;-80
2023/08/31 07:22:03;;;;;;;0.30;0.30;;;;;;;;;;5073254;28;20020;-79
2023/08/31 07:24:30;;;;;;;0.30;0.30;;;;;;;;;;5073490;28;20078;-79
2023/08/31 07:26:56;;;;;;;0.20;0.20;;;;;;;;;;5073787;28;20025;-80
2023/08/31 07:29:22;;;;;;;0.25;0.25;;;;;;;;;;5072488;28;20025;-81
2023/08/31 07:31:48;;;;;;;0.30;0.30;;;;;;;;;;5073471;28;20045;-80
2023/08/31 07:34:14;;;;;;;0.30;0.30;;;;;;;;;;5072581;28;20027;-79
2023/08/31 07:36:42;;;;;;;0.30;0.30;;;;;;;;;;5073390;28;20469;-80
2023/08/31 07:39:08;;;;;;;0.30;0.30;;;;;;;;;;5073288;28;20017;-79
2023/08/31 07:41:34;;;;;;;0.30;0.30;;;;;;;;;;5073600;28;20460;-80
2023/08/31 07:44:00;;;;;;;0.20;0.20;;;;;;;;;;5073731;28;20017;-80
2023/08/31 07:46:26;;;;;;;0.20;0.20;;;;;;;;;;5073624;28;20032;-78
2023/08/31 07:48:53;;;;;;;0.30;0.30;;;;;;;;;;5073641;28;20025;-79
2023/08/31 07:51:23;;;;;;;0.20;0.20;;;;;;;;;;5072121;28;20029;-80
2023/08/31 07:53:49;;;;;;;0.30;0.30;;;;;;;;;;5071810;28;20017;-79
2023/08/31 07:56:15;;;;;;;0.30;0.30;;;;;;;;;;5073717;28;20112;-79
2023/08/31 07:58:42;;;;;;;0.30;0.30;;;;;;;;;;5072435;28;20353;-79
2023/08/31 08:01:08;;;;;;;0.30;0.30;;;;;;;;;;5071868;28;20560;-80
2023/08/31 08:03:34;;;;;;;0.20;0.20;;;;;;;;;;5073589;28;20043;-81
2023/08/31 08:06:00;;;;;;;0.20;0.20;;;;;;;;;;5076228;28;20020;-80
2023/08/31 08:08:26;;;;;;;0.30;0.30;;;;;;;;;;5092152;28;20442;-79
2023/08/31 08:10:53;;;;;;;0.20;0.20;;;;;;;;;;5092931;28;20101;-79
2023/08/31 08:13:19;;;;;;;0.20;0.20;;;;;;;;;;5091651;28;20017;-80
2023/08/31 08:15:46;;;;;;;0.28;0.28;;;;;;;;;;5091814;28;20139;-79
2023/08/31 08:18:12;;;;;;;0.20;0.20;;;;;;;;;;5072014;28;20027;-79
2023/08/31 08:20:38;;;;;;;0.20;0.20;;;;;;;;;;5071793;28;20456;-79
2023/08/31 08:23:06;;;;;;;0.20;0.20;;;;;;;;;;5072514;28;20027;-80
2023/08/31 08:25:32;;;;;;;0.20;0.20;;;;;;;;;;5075653;28;20048;-81
2023/08/31 08:27:58;;;;;;;0.20;0.20;;;;;;;;;;5076186;28;20419;-81
2023/08/31 08:30:24;;;;;;;0.20;0.20;;;;;;;;;;5076030;28;20024;-80
2023/08/31 08:32:50;;;;;;;0.20;0.20;;;;;;;;;;5075387;28;20029;-80
2023/08/31 08:35:16;;;;;;;0.20;0.20;;;;;;;;;;5075132;28;20395;-79
2023/08/31 08:37:42;;;;;;;0.20;0.20;;;;;;;;;;5075300;28;20044;-82
2023/08/31 08:40:10;;;;;;;0.20;0.20;;;;;;;;;;5077897;28;20074;-79
2023/08/31 08:42:41;;;;;;;0.20;0.20;;;;;;;;;;5076197;28;20032;-81
2023/08/31 08:45:08;;;;;;;0.20;0.20;;;;;;;;;;5075950;28;20024;-80
2023/08/31 08:47:35;;;;;;;0.20;0.20;;;;;;;;;;5075111;28;20024;-81
2023/08/31 08:50:02;;;;;;;0.20;0.20;;;;;;;;;;5075010;28;20031;-81
2023/08/31 08:52:29;;;;;;;0.20;0.20;;;;;;;;;;5075424;28;20483;-79
2023/08/31 08:54:57;;;;;;;0.20;0.20;;;;;;;;;;5093476;28;20024;-79
2023/08/31 08:57:23;;;;;;;0.20;0.20;;;;;;;;;;5089821;28;20033;-79
2023/08/31 08:59:49;;;;;;;0.20;0.20;;;;;;;;;;5095374;28;20073;-80
2023/08/31 09:02:15;;;;;;;0.20;0.20;;;;;;;;;;5095750;28;20016;-79
2023/08/31 09:04:41;;;;;;;0.25;0.25;;;;;;;;;;5095942;28;20028;-79
2023/08/31 09:07:07;;;;;;;0.20;0.20;;;;;;;;;;5095304;28;20388;-81
2023/08/31 09:09:49;;;;;;;0.20;0.20;;;;;;;;;;5096864;28;20076;-80
2023/08/31 09:12:15;;;;;;;0.20;0.20;;;;;;;;;;5097968;28;20486;-81
2023/08/31 09:14:41;;;;;;;0.20;0.20;;;;;;;;;;5097266;28;20318;-79
2023/08/31 09:17:07;;;;;;;0.20;0.20;;;;;;;;;;5096819;28;20032;-79
2023/08/31 09:19:33;;;;;;;0.30;0.30;;;;;;;;;;5095903;28;20399;-80
2023/08/31 09:21:59;;;;;;;0.30;0.30;;;;;;;;;;5095570;28;20021;-80
2023/08/31 09:24:25;;;;;;;0.38;0.38;;;;;;;;;;5094527;28;20038;-80
2023/08/31 09:26:58;;;;;;;0.20;0.20;;;;;;;;;;5092188;28;20028;-82
2023/08/31 09:29:25;;;;;;;0.20;0.20;;;;;;;;;;5094218;28;20020;-80
2023/08/31 09:31:51;;;;;;;0.20;0.20;;;;;;;;;;5093765;28;20013;-80
2023/08/31 09:34:18;;;;;;;0.30;0.30;;;;;;;;;;5079227;28;20473;-79
2023/08/31 09:36:44;;;;;;;0.40;0.40;;;;;;;;;;5073819;28;20149;-79
2023/08/31 09:39:12;;;;;;;0.20;0.20;;;;;;;;;;5073909;28;20032;-80
2023/08/31 09:41:54;;;;;;;0.20;0.20;;;;;;;;;;5074086;28;20024;-79
2023/08/31 09:44:21;;;;;;;0.20;0.20;;;;;;;;;;5094492;28;20024;-79
2023/08/31 09:46:47;;;;;;;0.20;0.20;;;;;;;;;;5095109;28;20024;-81
2023/08/31 09:49:14;;;;;;;0.20;0.20;;;;;;;;;;5096173;28;20027;-79
2023/08/31 09:51:42;;;;;;;0.20;0.20;;;;;;;;;;5076779;28;20020;-79
2023/08/31 09:54:10;;;;;;;0.20;0.20;;;;;;;;;;5074426;28;20048;-81
2023/08/31 09:56:36;;;;;;;0.20;0.20;;;;;;;;;;5074241;28;20028;-79
2023/08/31 09:59:03;;;;;;;0.20;0.20;;;;;;;;;;5073464;28;20029;-79
2023/08/31 10:01:29;;;;;;;0.20;0.20;;;;;;;;;;5073979;28;20379;-81
2023/08/31 10:03:55;;;;;;;0.20;0.20;;;;;;;;;;5074184;28;20030;-78
2023/08/31 10:06:22;;;;;;;0.20;0.20;;;;;;;;;;5081347;28;20032;-79
2023/08/31 10:08:49;;;;;;;0.20;0.20;;;;;;;;;;5094807;28;20024;-80
2023/08/31 10:11:15;;;;;;;0.20;0.20;;;;;;;;;;5096211;28;20148;-79
2023/08/31 10:13:42;;;;;;;0.20;0.20;;;;;;;;;;5094218;28;20042;-78
2023/08/31 10:16:08;;;;;;;0.30;0.30;;;;;;;;;;5093683;28;20044;-80
2023/08/31 10:18:38;;;;;;;0.20;0.20;;;;;;;;;;5094953;28;20013;-79
2023/08/31 10:21:07;;;;;;;0.22;0.22;;;;;;;;;;5093610;28;20016;-83
2023/08/31 10:23:35;;;;;;;0.20;0.20;;;;;;;;;;5096287;28;20027;-80
2023/08/31 10:26:03;;;;;;;0.20;0.20;;;;;;;;;;5093424;28;20020;-79
2023/08/31 10:28:29;;;;;;;0.20;0.20;;;;;;;;;;5094730;28;20110;-79
2023/08/31 10:31:09;;;;;;;0.20;0.20;;;;;;;;;;5093136;28;20023;-78
2023/08/31 10:33:36;;;;;;;0.20;0.20;;;;;;;;;;5095474;28;20020;-78
2023/08/31 10:36:02;;;;;;;0.20;0.20;;;;;;;;;;5095385;28;20051;-77
2023/08/31 10:38:32;;;;;;;0.20;0.20;;;;;;;;;;5094320;28;20395;-78
2023/08/31 10:41:02;;;;;;;0.20;0.20;;;;;;;;;;5094075;28;20479;-78
2023/08/31 10:43:43;;;;;;;0.20;0.20;;;;;;;;;;5093449;28;20020;-78
2023/08/31 10:46:16;;;;;;;0.10;0.10;;;;;;;;;;5094554;28;20024;-77
2023/08/31 10:48:52;;;;;;;0.20;0.20;;;;;;;;;;5093005;28;20025;-77
2023/08/31 10:51:20;;;;;;;0.20;0.20;;;;;;;;;;5094420;28;20485;-79
2023/08/31 10:53:47;;;;;;;0.20;0.20;;;;;;;;;;5093503;28;20444;-81
2023/08/31 10:56:13;;;;;;;0.10;0.10;;;;;;;;;;5093547;28;20028;-78
2023/08/31 10:58:39;;;;;;;0.10;0.10;;;;;;;;;;5094933;28;20020;-78
2023/08/31 11:01:05;;;;;;;0.20;0.20;;;;;;;;;;5092463;28;20028;-78
2023/08/31 11:03:31;;;;;;;0.30;0.30;;;;;;;;;;5093574;28;20460;-80
2023/08/31 11:05:58;;;;;;;0.15;0.15;;;;;;;;;;5094779;28;20062;-80
2023/08/31 11:08:24;;;;;;;0.10;0.10;;;;;;;;;;5094309;28;20024;-80
2023/08/31 11:10:51;;;;;;;0.10;0.10;;;;;;;;;;5093222;28;20059;-79
2023/08/31 11:13:19;;;;;;;0.20;0.20;;;;;;;;;;5093279;28;20532;-79
2023/08/31 11:15:49;;;;;;;0.20;0.20;;;;;;;;;;5093763;28;20036;-78
2023/08/31 11:18:17;;;;;;;0.10;0.10;;;;;;;;;;5093037;28;20115;-80
2023/08/31 11:20:43;;;;;;;0.20;0.20;;;;;;;;;;5093221;28;20467;-79
2023/08/31 11:23:09;;;;;;;0.30;0.30;;;;;;;;;;5093213;28;20024;-78
2023/08/31 11:25:36;;;;;;;0.10;0.10;;;;;;;;;;5093434;28;20020;-80
2023/08/31 11:28:06;;;;;;;0.10;0.10;;;;;;;;;;5093155;28;20101;-78
2023/08/31 11:30:33;;;;;;;0.20;0.20;;;;;;;;;;5093384;28;20021;-81
2023/08/31 11:33:11;;;;;;;0.20;0.20;;;;;;;;;;5092855;28;20024;-81
2023/08/31 11:35:39;;;;;;;0.10;0.10;;;;;;;;;;5092320;28;20035;-79
2023/08/31 11:38:06;;;;;;;0.10;0.10;;;;;;;;;;5093651;28;20520;-78
2023/08/31 11:40:32;;;;;;;0.10;0.10;;;;;;;;;;5093683;28;20032;-80
2023/08/31 11:43:00;;;;;;;0.10;0.10;;;;;;;;;;5091817;28;20016;-77
2023/08/31 11:45:26;;;;;;;0.10;0.10;;;;;;;;;;5092074;28;20024;-78
2023/08/31 11:47:53;;;;;;;0.30;0.30;;;;;;;;;;5093011;28;20019;-79
2023/08/31 11:50:20;;;;;;;0.45;0.40;;;;;;;;;;5094078;28;20058;-77
2023/08/31 11:52:46;;;;;;;0.10;0.10;;;;;;;;;;5095252;28;20028;-80
2023/08/31 11:55:13;;;;;;;0.13;0.13;;;;;;;;;;5091250;28;20140;-80
2023/08/31 11:57:39;;;;;;;0.10;0.10;;;;;;;;;;5092686;28;20021;-78
2023/08/31 12:00:05;;;;;;;0.10;0.10;;;;;;;;;;5096104;28;20066;-79
2023/08/31 12:02:38;;;;;;;0.20;0.20;;;;;;;;;;5096586;28;20067;-80
2023/08/31 12:05:05;;;;;;;0.10;0.10;;;;;;;;;;5096265;28;20024;-80
2023/08/31 12:07:31;;;;;;;0.10;0.10;;;;;;;;;;5096417;28;20020;-79
2023/08/31 12:10:04;;;;;;;0.10;0.10;;;;;;;;;;5098011;28;20463;-79
2023/08/31 12:12:32;;;;;;;0.10;0.10;;;;;;;;;;5096437;28;20464;-78
2023/08/31 12:15:03;;;;;;;0.10;0.10;;;;;;;;;;5097302;28;20040;-80
2023/08/31 12:17:30;;;;;;;0.10;0.10;;;;;;;;;;5097556;28;20145;-80
2023/08/31 12:20:04;;;;;;;0.10;0.10;;;;;;;;;;5099337;28;20013;-81
2023/08/31 12:22:30;;;;;;;0.10;0.10;;;;;;;;;;5097651;28;20103;-81
2023/08/31 12:24:56;;;;;;;0.10;0.10;;;;;;;;;;5097790;28;20021;-80
2023/08/31 12:27:22;;;;;;;0.10;0.10;;;;;;;;;;5097718;28;20077;-79
2023/08/31 12:29:50;;;;;;;0.10;0.10;;;;;;;;;;5098236;28;20031;-79
2023/08/31 12:32:19;;;;;;;0.10;0.10;;;;;;;;;;5096595;28;20016;-78
2023/08/31 12:34:45;;;;;;;0.10;0.10;;;;;;;;;;5098389;28;20081;-78
2023/08/31 12:37:11;;;;;;;0.10;0.10;;;;;;;;;;5098603;28;20027;-78
2023/08/31 12:39:38;;;;;;;0.20;0.20;;;;;;;;;;5097007;28;20047;-77
2023/08/31 12:42:04;;;;;;;0.10;0.10;;;;;;;;;;5097433;28;20083;-77
2023/08/31 12:44:31;;;;;;;0.10;0.10;;;;;;;;;;5097059;28;20074;-77
2023/08/31 12:46:57;;;;;;;0.10;0.10;;;;;;;;;;5099313;28;20036;-78
2023/08/31 12:49:23;;;;;;;0.20;0.20;;;;;;;;;;5096095;28;20487;-76
2023/08/31 12:51:52;;;;;;;0.10;0.10;;;;;;;;;;5098312;28;20028;-79
2023/08/31 12:54:20;;;;;;;0.10;0.10;;;;;;;;;;5098541;28;20044;-77
2023/08/31 12:56:46;;;;;;;0.10;0.10;;;;;;;;;;5096497;28;20077;-78
2023/08/31 12:59:12;;;;;;;0.17;0.17;;;;;;;;;;5096385;28;20028;-79
2023/08/31 13:01:38;;;;;;;0.10;0.10;;;;;;;;;;5095758;28;20111;-80
2023/08/31 13:04:05;;;;;;;0.20;0.20;;;;;;;;;;5097528;28;20027;-77
2023/08/31 13:06:31;;;;;;;0.57;0.30;;;;;;;;;;5097060;28;20429;-80
2023/08/31 13:08:57;;;;;;;0.20;0.20;;;;;;;;;;5097984;28;20085;-79
2023/08/31 13:11:23;;;;;;;0.20;0.20;;;;;;;;;;5097367;28;20047;-77
2023/08/31 13:13:53;;;;;;;0.10;0.10;;;;;;;;;;5096510;28;20069;-77
2023/08/31 13:16:19;;;;;;;0.10;0.10;;;;;;;;;;5097812;28;20044;-78
2023/08/31 13:18:45;;;;;;;0.20;0.20;;;;;;;;;;5096889;28;20020;-80
2023/08/31 13:21:12;;;;;;;0.40;0.40;;;;;;;;;;5095293;28;20024;-78
2023/08/31 13:23:38;;;;;;;0.10;0.10;;;;;;;;;;5096032;28;20016;-77
2023/08/31 13:26:04;;;;;;;0.20;0.20;;;;;;;;;;5095763;28;20085;-76
2023/08/31 13:28:30;;;;;;;0.10;0.10;;;;;;;;;;5096768;28;20024;-81
2023/08/31 13:31:00;;;;;;;0.10;0.10;;;;;;;;;;5097950;28;20467;-79
2023/08/31 13:33:30;;;;;;;0.25;0.25;;;;;;;;;;5101049;28;20020;-80
2023/08/31 13:35:59;;;;;;;0.10;0.10;;;;;;;;;;5094721;28;20077;-79
2023/08/31 13:38:26;;;;;;;0.20;0.20;;;;;;;;;;5095924;28;20020;-81
2023/08/31 13:40:58;;;;;;;0.10;0.10;;;;;;;;;;5097311;28;20017;-79
2023/08/31 13:43:25;;;;;;;0.20;0.20;;;;;;;;;;5097679;28;20032;-80
2023/08/31 13:45:51;;;;;;;0.10;0.10;;;;;;;;;;5095578;28;20043;-78
2023/08/31 13:48:17;;;;;;;0.10;0.10;;;;;;;;;;5096605;28;20066;-78
2023/08/31 13:50:44;;;;;;;0.20;0.20;;;;;;;;;;5095839;28;20043;-80
2023/08/31 13:53:10;;;;;;;0.10;0.10;;;;;;;;;;5093729;28;20028;-77
2023/08/31 13:55:36;;;;;;;0.10;0.10;;;;;;;;;;5093306;28;20107;-80
2023/08/31 13:58:06;;;;;;;0.10;0.10;;;;;;;;;;5092902;28;20105;-80
2023/08/31 14:00:33;;;;;;;0.20;0.20;;;;;;;;;;5093186;28;20024;-80
2023/08/31 14:03:02;;;;;;;0.10;0.10;;;;;;;;;;5092408;28;20269;-78
2023/08/31 14:05:29;;;;;;;0.10;0.10;;;;;;;;;;5093001;28;20078;-80
2023/08/31 14:07:55;;;;;;;0.15;0.15;;;;;;;;;;5093117;28;20111;-79
2023/08/31 14:10:21;;;;;;;0.10;0.10;;;;;;;;;;5092931;28;20024;-77
2023/08/31 14:12:47;;;;;;;0.20;0.20;;;;;;;;;;5093215;28;20024;-78
2023/08/31 14:15:14;;;;;;;0.13;0.13;;;;;;;;;;5094613;28;20052;-82
2023/08/31 14:17:40;;;;;;;0.10;0.10;;;;;;;;;;5094201;28;20059;-78
2023/08/31 14:20:09;;;;;;;0.20;0.20;;;;;;;;;;5093568;28;20081;-80
2023/08/31 14:22:36;;;;;;;0.22;0.22;;;;;;;;;;5093352;28;20379;-82
2023/08/31 14:25:03;;;;;;;0.20;0.20;;;;;;;;;;5093514;28;20456;-83
2023/08/31 14:27:30;;;;;;;0.20;0.20;;;;;;;;;;5094288;28;20028;-80
2023/08/31 14:29:57;;;;;;;0.20;0.20;;;;;;;;;;5093748;28;20039;-77
2023/08/31 14:32:23;;;;;;;0.40;0.40;;;;;;;;;;5093134;28;20031;-80
2023/08/31 14:34:50;;;;;;;0.20;0.20;;;;;;;;;;5093762;28;20024;-81
2023/08/31 14:37:16;;;;;;;0.30;0.30;;;;;;;;;;5094190;28;20415;-81
2023/08/31 14:39:42;;;;;;;0.20;0.20;;;;;;;;;;5093437;28;20027;-82
2023/08/31 14:42:08;;;;;;;0.20;0.20;;;;;;;;;;5094050;28;20421;-81